Time;durP1;ratioP1;P1;durP2;ratioP2;P2;SDS_P1;SDS_P2;PMS_P1;PMS_P2;Temp;Humidity;BMP_temperature;BMP_pressure;BME280_temperature;BME280_humidity;BME280_pressure;Samples;Min_cycle;Max_cycle;Signal;HPM_P1;HPM_P2
2023/08/19 00:01:20;;;;;;;29.38;23.73;;;21.00;99.90;;;;;;5112467;27;20095;-82
2023/08/19 00:03:48;;;;;;;30.23;24.40;;;20.90;99.90;;;;;;5079351;27;20067;-81
2023/08/19 00:06:33;;;;;;;30.70;25.63;;;20.90;99.90;;;;;;5109485;27;20050;-82
2023/08/19 00:09:04;;;;;;;29.70;24.63;;;20.90;99.90;;;;;;5093490;27;20054;-81
2023/08/19 00:11:31;;;;;;;34.03;27.02;;;20.80;99.90;;;;;;5093108;27;20043;-82
2023/08/19 00:13:58;;;;;;;28.23;23.75;;;20.80;99.90;;;;;;5097303;27;20593;-84
2023/08/19 00:16:24;;;;;;;31.60;25.35;;;20.80;99.90;;;;;;5121228;27;20039;-81
2023/08/19 00:18:50;;;;;;;30.98;24.77;;;20.70;99.90;;;;;;5118976;27;20144;-83
2023/08/19 00:21:16;;;;;;;31.15;24.27;;;20.70;99.90;;;;;;5119531;27;20035;-80
2023/08/19 00:23:43;;;;;;;28.20;23.55;;;20.70;99.90;;;;;;5085375;27;20128;-82
2023/08/19 00:26:11;;;;;;;28.50;23.52;;;20.70;99.90;;;;;;5096280;27;20149;-81
2023/08/19 00:28:39;;;;;;;28.42;25.40;;;20.60;99.90;;;;;;5082464;27;20047;-80
2023/08/19 00:31:08;;;;;;;29.60;24.67;;;20.60;99.90;;;;;;5078393;27;20044;-80
2023/08/19 00:33:34;;;;;;;33.72;26.42;;;20.60;99.90;;;;;;5090451;27;20078;-82
2023/08/19 00:36:00;;;;;;;30.80;26.23;;;20.60;99.90;;;;;;5079152;27;20044;-81
2023/08/19 00:38:26;;;;;;;29.83;25.63;;;20.50;99.90;;;;;;5098748;27;20047;-80
2023/08/19 00:40:52;;;;;;;28.33;23.40;;;20.50;99.90;;;;;;5075039;27;20052;-81
2023/08/19 00:43:18;;;;;;;25.30;22.10;;;20.50;99.90;;;;;;5086074;27;20047;-82
2023/08/19 00:45:47;;;;;;;27.95;23.80;;;20.50;99.90;;;;;;5084560;27;20163;-83
2023/08/19 00:48:15;;;;;;;31.20;25.85;;;20.50;99.90;;;;;;5098659;27;21424;-84
2023/08/19 00:50:43;;;;;;;29.65;25.40;;;20.50;99.90;;;;;;5068279;27;20044;-81
2023/08/19 00:53:10;;;;;;;31.15;25.60;;;20.40;99.90;;;;;;5099893;27;20047;-81
2023/08/19 00:55:36;;;;;;;34.05;26.13;;;20.40;99.90;;;;;;5067911;27;20054;-83
2023/08/19 00:58:07;;;;;;;30.38;26.02;;;20.40;99.90;;;;;;5084377;27;20362;-81
2023/08/19 01:00:34;;;;;;;30.13;25.08;;;20.40;99.90;;;;;;5080145;27;20455;-84
2023/08/19 01:03:01;;;;;;;28.38;24.15;;;20.30;99.90;;;;;;5062898;27;20070;-84
2023/08/19 01:05:43;;;;;;;36.42;26.73;;;20.30;99.90;;;;;;5096268;27;20039;-81
2023/08/19 01:08:13;;;;;;;29.55;25.65;;;20.30;99.90;;;;;;5079746;27;20043;-81
2023/08/19 01:11:00;;;;;;;31.60;25.02;;;20.30;99.90;;;;;;5083653;27;20128;-83
2023/08/19 01:13:40;;;;;;;30.95;26.52;;;20.20;99.90;;;;;;5101403;27;20085;-83
2023/08/19 01:16:19;;;;;;;31.73;25.90;;;20.20;99.90;;;;;;5076992;27;20047;-85
2023/08/19 01:18:53;;;;;;;31.17;25.53;;;20.20;99.90;;;;;;5098098;27;20057;-82
2023/08/19 01:21:21;;;;;;;29.98;24.00;;;20.10;99.90;;;;;;5093478;27;20187;-83
2023/08/19 01:23:49;;;;;;;31.60;26.55;;;20.10;99.90;;;;;;5096536;27;20498;-81
2023/08/19 01:26:17;;;;;;;29.85;26.00;;;20.10;99.90;;;;;;5114333;27;20055;-81
2023/08/19 01:28:43;;;;;;;30.90;26.15;;;20.10;99.90;;;;;;5076755;27;20069;-81
2023/08/19 01:31:09;;;;;;;32.95;28.08;;;20.10;99.90;;;;;;5094312;27;20122;-82
2023/08/19 01:33:35;;;;;;;35.75;27.35;;;20.10;99.90;;;;;;5085698;27;20261;-81
2023/08/19 01:36:11;;;;;;;30.55;25.95;;;20.10;99.90;;;;;;5095687;27;20135;-81
2023/08/19 01:38:50;;;;;;;32.40;27.90;;;20.10;99.90;;;;;;5082003;27;20048;-81
2023/08/19 01:41:19;;;;;;;29.13;24.73;;;20.00;99.90;;;;;;5095857;27;20051;-81
2023/08/19 01:43:46;;;;;;;33.97;27.48;;;20.00;99.90;;;;;;5099939;27;20054;-81
2023/08/19 01:46:13;;;;;;;33.42;27.08;;;20.00;99.90;;;;;;5082681;27;20436;-81
2023/08/19 01:48:40;;;;;;;28.20;25.13;;;20.00;99.90;;;;;;5093518;27;20484;-83
2023/08/19 01:51:07;;;;;;;29.25;24.67;;;20.00;99.90;;;;;;5100693;27;20559;-82
2023/08/19 01:53:32;;;;;;;28.85;25.15;;;19.90;99.90;;;;;;5077688;27;20051;-81
2023/08/19 01:55:59;;;;;;;33.78;26.40;;;19.90;99.90;;;;;;5074815;27;20057;-81
2023/08/19 01:58:26;;;;;;;30.42;27.13;;;19.90;99.90;;;;;;5110634;27;20051;-81
2023/08/19 02:00:59;;;;;;;31.33;27.27;;;19.90;99.90;;;;;;5110175;27;20464;-81
2023/08/19 02:03:25;;;;;;;32.25;26.60;;;19.90;99.90;;;;;;5095103;27;20047;-83
2023/08/19 02:05:51;;;;;;;33.65;27.95;;;19.90;99.90;;;;;;5094532;27;20044;-81
2023/08/19 02:08:18;;;;;;;32.33;27.25;;;19.90;99.90;;;;;;5113005;27;20043;-81
2023/08/19 02:10:44;;;;;;;30.08;25.27;;;19.90;99.90;;;;;;5093938;27;20078;-82
2023/08/19 02:13:12;;;;;;;32.13;26.50;;;19.90;99.90;;;;;;5092941;27;20397;-84
2023/08/19 02:15:38;;;;;;;31.83;25.70;;;19.90;99.90;;;;;;5097566;27;20043;-83
2023/08/19 02:18:04;;;;;;;31.08;25.80;;;19.90;99.90;;;;;;5077707;27;20474;-80
2023/08/19 02:20:40;;;;;;;32.97;26.05;;;19.90;99.90;;;;;;5079671;27;20142;-81
2023/08/19 02:23:05;;;;;;;34.58;26.17;;;20.00;99.90;;;;;;5092787;27;20058;-83
2023/08/19 02:25:38;;;;;;;31.55;26.30;;;19.90;99.90;;;;;;5077291;27;21578;-83
2023/08/19 02:28:07;;;;;;;34.35;28.33;;;19.90;99.90;;;;;;5083490;27;20038;-82
2023/08/19 02:30:33;;;;;;;33.65;27.10;;;19.90;99.90;;;;;;5110753;27;20051;-81
2023/08/19 02:33:08;;;;;;;30.77;26.85;;;19.90;99.90;;;;;;5110866;27;20063;-82
2023/08/19 02:35:34;;;;;;;33.10;27.17;;;19.90;99.90;;;;;;5093574;27;20075;-81
2023/08/19 02:37:59;;;;;;;29.15;24.90;;;19.90;99.90;;;;;;5110850;27;20122;-83
2023/08/19 02:40:27;;;;;;;31.63;27.08;;;20.00;99.90;;;;;;5081054;27;20040;-83
2023/08/19 02:43:03;;;;;;;30.95;25.83;;;20.00;99.90;;;;;;5082985;27;20050;-81
2023/08/19 02:45:35;;;;;;;32.83;27.20;;;20.00;99.90;;;;;;5094180;27;20089;-81
2023/08/19 02:48:01;;;;;;;35.53;27.70;;;20.00;99.90;;;;;;5094219;27;20187;-82
2023/08/19 02:50:26;;;;;;;32.20;26.90;;;20.00;99.90;;;;;;5098039;27;20695;-82
2023/08/19 02:52:52;;;;;;;34.00;27.42;;;20.00;99.90;;;;;;5078022;27;20385;-82
2023/08/19 02:55:19;;;;;;;34.70;29.08;;;20.10;99.90;;;;;;5080988;27;20127;-83
2023/08/19 02:57:45;;;;;;;31.60;26.27;;;20.10;99.90;;;;;;5092827;27;20714;-83
2023/08/19 03:00:11;;;;;;;32.20;25.80;;;20.10;99.90;;;;;;5094451;27;20043;-83
2023/08/19 03:02:38;;;;;;;30.10;25.45;;;20.10;99.90;;;;;;5110865;27;20050;-82
2023/08/19 03:05:05;;;;;;;28.58;25.33;;;20.10;99.90;;;;;;5078713;27;20043;-80
2023/08/19 03:07:31;;;;;;;31.88;26.45;;;20.10;99.90;;;;;;5103631;27;20137;-82
2023/08/19 03:09:57;;;;;;;29.55;25.00;;;20.10;99.90;;;;;;5092879;27;20042;-83
2023/08/19 03:12:22;;;;;;;31.92;27.00;;;20.50;99.90;;;;;;5092900;27;20058;-81
2023/08/19 03:14:48;;;;;;;31.55;25.83;;;20.20;99.90;;;;;;5076223;27;20051;-80
2023/08/19 03:17:14;;;;;;;32.13;26.25;;;20.20;99.90;;;;;;5082933;27;20078;-81
2023/08/19 03:19:40;;;;;;;31.35;25.20;;;20.20;99.90;;;;;;5090195;27;20138;-80
2023/08/19 03:22:06;;;;;;;34.35;26.17;;;20.20;99.90;;;;;;5110892;27;20512;-81
2023/08/19 03:24:31;;;;;;;29.13;25.10;;;20.20;99.90;;;;;;5082375;27;20149;-81
2023/08/19 03:26:57;;;;;;;29.70;24.58;;;20.10;99.90;;;;;;5110203;27;20659;-82
2023/08/19 03:29:25;;;;;;;33.20;27.00;;;20.20;99.90;;;;;;5091852;27;20125;-81
2023/08/19 03:31:51;;;;;;;31.85;26.08;;;20.20;99.90;;;;;;5093126;27;20079;-81
2023/08/19 03:34:17;;;;;;;29.02;25.35;;;20.20;99.90;;;;;;5081444;27;20039;-82
2023/08/19 03:36:43;;;;;;;28.65;23.58;;;20.20;99.90;;;;;;5092683;27;20532;-83
2023/08/19 03:39:08;;;;;;;26.80;23.30;;;20.20;99.90;;;;;;5076267;27;20039;-81
2023/08/19 03:41:34;;;;;;;34.03;26.30;;;20.20;99.90;;;;;;5090270;27;20051;-80
2023/08/19 03:44:04;;;;;;;30.00;26.15;;;20.20;99.90;;;;;;5079000;27;20039;-82
2023/08/19 03:46:30;;;;;;;25.60;21.20;;;20.20;99.90;;;;;;5079539;27;20051;-80
2023/08/19 03:48:56;;;;;;;30.33;24.25;;;20.20;99.90;;;;;;5077590;27;20049;-81
2023/08/19 03:51:22;;;;;;;26.33;22.70;;;20.20;99.90;;;;;;5076797;27;20047;-83
2023/08/19 03:53:48;;;;;;;30.75;26.05;;;20.20;99.90;;;;;;5079087;27;20058;-82
2023/08/19 03:56:17;;;;;;;29.92;24.73;;;20.20;99.90;;;;;;5100329;27;20046;-80
2023/08/19 03:58:45;;;;;;;25.95;22.05;;;20.20;99.90;;;;;;5094361;27;20078;-81
2023/08/19 04:01:11;;;;;;;24.27;21.63;;;20.20;99.90;;;;;;5093504;27;20159;-82
2023/08/19 04:03:36;;;;;;;25.85;22.48;;;20.30;99.90;;;;;;5079366;27;20432;-81
2023/08/19 04:06:03;;;;;;;24.90;21.60;;;20.20;99.90;;;;;;5076118;27;20051;-80
2023/08/19 04:08:29;;;;;;;23.40;20.75;;;20.30;99.90;;;;;;5094007;27;20048;-81
2023/08/19 04:11:06;;;;;;;24.30;21.33;;;20.30;99.90;;;;;;5110542;27;20042;-82
2023/08/19 04:13:34;;;;;;;28.38;23.67;;;20.30;99.90;;;;;;5078817;27;20063;-81
2023/08/19 04:16:04;;;;;;;22.98;20.52;;;20.30;99.90;;;;;;5094150;27;20164;-83
2023/08/19 04:18:30;;;;;;;27.15;22.02;;;20.30;99.90;;;;;;5069170;27;20083;-82
2023/08/19 04:20:56;;;;;;;27.65;22.58;;;20.30;99.90;;;;;;5097831;27;20130;-82
2023/08/19 04:23:42;;;;;;;22.77;20.35;;;20.30;99.90;;;;;;5077093;27;20047;-76
2023/08/19 04:26:38;;;;;;;25.27;22.33;;;20.40;99.90;;;;;;5108674;27;20043;-77
2023/08/19 04:29:25;;;;;;;28.63;24.10;;;20.40;99.90;;;;;;5076996;27;20579;-78
2023/08/19 04:32:07;;;;;;;24.33;20.48;;;20.40;99.90;;;;;;5088347;27;20266;-77
2023/08/19 04:34:34;;;;;;;25.63;22.42;;;20.40;99.90;;;;;;5082136;27;20062;-76
2023/08/19 04:37:18;;;;;;;25.40;22.70;;;20.50;99.90;;;;;;5085410;27;20509;-78
2023/08/19 04:40:20;;;;;;;26.65;22.40;;;20.50;99.90;;;;;;5095271;27;20051;-77
2023/08/19 04:42:53;;;;;;;23.83;20.58;;;20.50;99.90;;;;;;5094356;27;20059;-78
2023/08/19 04:45:22;;;;;;;27.08;22.90;;;20.60;99.90;;;;;;5096718;27;20073;-76
2023/08/19 04:48:43;;;;;;;29.05;22.60;;;20.50;99.90;;;;;;5097940;27;20042;-77
2023/08/19 04:51:15;;;;;;;28.92;23.85;;;20.60;99.90;;;;;;5092548;27;20082;-78
2023/08/19 04:54:38;;;;;;;24.27;21.60;;;20.60;99.90;;;;;;5114343;27;20055;-77
2023/08/19 04:57:15;;;;;;;26.33;22.02;;;20.60;99.90;;;;;;5111739;27;20055;-77
2023/08/19 05:00:12;;;;;;;27.23;23.15;;;20.60;99.90;;;;;;5099046;27;20518;-76
2023/08/19 05:02:45;;;;;;;25.27;22.13;;;20.70;99.90;;;;;;5111689;27;20538;-77
2023/08/19 05:05:56;;;;;;;26.23;23.40;;;20.70;99.90;;;;;;5088120;27;20055;-77
2023/08/19 05:11:49;;;;;;;26.13;22.50;;;20.80;99.90;;;;;;5112172;27;20485;-77
2023/08/19 05:14:55;;;;;;;24.30;21.70;;;20.90;99.90;;;;;;5085461;27;20051;-77
2023/08/19 05:21:24;;;;;;;25.17;22.05;;;20.90;99.90;;;;;;5113067;27;20088;-77
2023/08/19 05:24:34;;;;;;;24.80;21.70;;;20.50;99.90;;;;;;5099834;27;20580;-79
2023/08/19 05:27:05;;;;;;;28.83;23.48;;;20.90;99.90;;;;;;5095761;27;20091;-77
2023/08/19 05:29:59;;;;;;;26.60;22.27;;;20.90;99.90;;;;;;5077630;28;20545;-77
2023/08/19 05:32:59;;;;;;;25.05;20.70;;;21.00;99.90;;;;;;5074986;28;20056;-77
2023/08/19 05:35:59;;;;;;;27.27;22.33;;;21.00;99.90;;;;;;5080025;27;20052;-75
2023/08/19 05:38:52;;;;;;;26.85;23.20;;;21.00;99.90;;;;;;5092654;28;20131;-75
2023/08/19 05:41:30;;;;;;;26.83;21.98;;;21.00;99.90;;;;;;5033707;28;20574;-74
2023/08/19 05:44:39;;;;;;;26.90;22.13;;;21.10;99.90;;;;;;5081709;28;20131;-75
2023/08/19 05:47:27;;;;;;;26.55;22.50;;;21.10;99.90;;;;;;5088138;27;20537;-74
2023/08/19 05:50:21;;;;;;;27.08;22.88;;;21.20;99.90;;;;;;5075996;28;20135;-75
2023/08/19 05:52:47;;;;;;;24.98;21.67;;;20.90;99.90;;;;;;5078167;28;20059;-79
2023/08/19 05:55:12;;;;;;;23.98;21.38;;;21.20;99.90;;;;;;5073473;28;20111;-79
2023/08/19 05:57:38;;;;;;;24.00;21.33;;;21.30;99.90;;;;;;5067724;27;20351;-82
2023/08/19 06:00:11;;;;;;;28.05;23.38;;;21.30;99.90;;;;;;5061015;27;20055;-82
2023/08/19 06:02:46;;;;;;;23.70;21.05;;;21.30;99.90;;;;;;5080689;27;20066;-82
2023/08/19 06:05:12;;;;;;;26.30;22.58;;;21.40;99.90;;;;;;5062689;27;20425;-82
2023/08/19 06:07:38;;;;;;;27.15;21.60;;;21.40;99.90;;;;;;5047045;27;20050;-81
2023/08/19 06:10:05;;;;;;;25.48;21.42;;;21.40;99.90;;;;;;5081046;27;20039;-78
2023/08/19 06:12:30;;;;;;;24.38;20.73;;;21.50;99.90;;;;;;5079588;27;20088;-77
2023/08/19 06:14:56;;;;;;;27.40;22.25;;;21.50;99.90;;;;;;5085627;27;20068;-79
2023/08/19 06:17:22;;;;;;;26.33;22.50;;;21.50;99.90;;;;;;5065288;27;20047;-78
2023/08/19 06:19:48;;;;;;;23.45;20.15;;;21.50;99.90;;;;;;5096207;27;20043;-79
2023/08/19 06:22:13;;;;;;;25.50;21.33;;;21.60;99.90;;;;;;5112061;27;20051;-79
2023/08/19 06:24:39;;;;;;;26.17;20.63;;;21.60;99.90;;;;;;5089985;27;20402;-80
2023/08/19 06:27:05;;;;;;;23.75;21.25;;;21.60;99.90;;;;;;5099269;27;20128;-79
2023/08/19 06:29:31;;;;;;;24.45;21.15;;;21.70;99.90;;;;;;5101791;27;20051;-79
2023/08/19 06:31:57;;;;;;;22.20;19.48;;;21.70;99.90;;;;;;5096710;27;20497;-79
2023/08/19 06:34:23;;;;;;;25.23;20.52;;;21.80;99.90;;;;;;5090683;27;20043;-78
2023/08/19 06:36:52;;;;;;;25.67;21.25;;;21.80;99.90;;;;;;5093458;27;20142;-78
2023/08/19 06:39:28;;;;;;;23.00;20.15;;;21.80;99.90;;;;;;5079542;27;20050;-76
2023/08/19 06:42:00;;;;;;;23.20;20.75;;;21.90;99.90;;;;;;5093649;27;20047;-77
2023/08/19 06:44:28;;;;;;;24.90;19.95;;;21.90;99.90;;;;;;5083425;27;20046;-77
2023/08/19 06:46:56;;;;;;;21.48;18.67;;;21.90;99.90;;;;;;5093568;27;20114;-76
2023/08/19 06:49:22;;;;;;;22.52;20.05;;;21.90;99.90;;;;;;5092303;27;20043;-76
2023/08/19 06:51:48;;;;;;;21.65;18.17;;;21.90;99.90;;;;;;5091990;27;20171;-77
2023/08/19 06:54:15;;;;;;;23.67;19.48;;;21.90;99.90;;;;;;5076839;27;20489;-76
2023/08/19 06:56:57;;;;;;;21.42;19.00;;;22.00;99.90;;;;;;5095756;27;20435;-77
2023/08/19 06:59:38;;;;;;;23.58;19.50;;;22.00;99.90;;;;;;5094975;27;20131;-77
2023/08/19 07:02:06;;;;;;;21.73;18.73;;;22.00;99.90;;;;;;5099082;27;20047;-77
2023/08/19 07:04:33;;;;;;;21.90;18.45;;;22.10;99.90;;;;;;5096943;27;20147;-77
2023/08/19 07:07:03;;;;;;;20.40;17.63;;;22.10;99.90;;;;;;5098829;27;20039;-77
2023/08/19 07:09:30;;;;;;;20.80;18.25;;;22.20;99.90;;;;;;5100104;27;20047;-77
2023/08/19 07:11:57;;;;;;;20.30;17.30;;;22.20;99.90;;;;;;5094187;27;20054;-78
2023/08/19 07:14:26;;;;;;;23.70;18.15;;;22.20;99.90;;;;;;5082136;27;20082;-78
2023/08/19 07:16:56;;;;;;;22.00;18.75;;;22.30;99.90;;;;;;5088164;27;20039;-78
2023/08/19 07:19:26;;;;;;;20.90;18.70;;;22.40;99.90;;;;;;5081855;27;20563;-77
2023/08/19 07:21:53;;;;;;;22.65;18.75;;;22.50;99.90;;;;;;5087768;27;21337;-78
2023/08/19 07:24:21;;;;;;;21.98;18.95;;;22.50;99.90;;;;;;5118146;27;20524;-77
2023/08/19 07:26:49;;;;;;;21.92;18.70;;;22.50;99.90;;;;;;5083571;27;20054;-78
2023/08/19 07:29:32;;;;;;;20.92;18.63;;;22.60;99.90;;;;;;5118378;27;20567;-77
2023/08/19 07:31:58;;;;;;;20.35;18.15;;;22.70;99.90;;;;;;5088074;27;20050;-80
2023/08/19 07:34:24;;;;;;;23.23;19.13;;;22.80;99.90;;;;;;5104808;27;20043;-79
2023/08/19 07:36:50;;;;;;;23.25;18.13;;;22.90;99.90;;;;;;5101536;27;20043;-78
2023/08/19 07:39:16;;;;;;;21.40;17.42;;;22.90;99.90;;;;;;5108835;27;20579;-80
2023/08/19 07:41:42;;;;;;;21.17;17.52;;;23.00;99.90;;;;;;5098379;27;20084;-81
2023/08/19 07:44:08;;;;;;;19.42;17.38;;;23.10;99.90;;;;;;5101634;27;20047;-79
2023/08/19 07:46:34;;;;;;;22.45;18.35;;;23.10;99.90;;;;;;5098321;27;20054;-78
2023/08/19 07:49:00;;;;;;;23.50;18.33;;;23.20;99.90;;;;;;5117418;27;20082;-79
2023/08/19 07:51:25;;;;;;;18.92;16.85;;;23.30;99.90;;;;;;5092999;27;20043;-79
2023/08/19 07:53:51;;;;;;;20.10;16.83;;;23.30;99.90;;;;;;5080291;27;20047;-78
2023/08/19 07:56:17;;;;;;;20.25;17.40;;;23.30;99.90;;;;;;5082355;27;20051;-80
2023/08/19 07:58:44;;;;;;;18.10;16.20;;;23.40;99.90;;;;;;5103700;27;20107;-79
2023/08/19 08:01:10;;;;;;;20.02;17.08;;;23.50;99.90;;;;;;5102689;27;20051;-81
2023/08/19 08:03:38;;;;;;;22.25;17.08;;;23.50;99.90;;;;;;5098914;27;20143;-81
2023/08/19 08:06:05;;;;;;;20.10;17.02;;;23.60;99.90;;;;;;5080988;27;20507;-79
2023/08/19 08:08:31;;;;;;;18.55;16.55;;;23.60;99.90;;;;;;5085344;27;20039;-80
2023/08/19 08:10:57;;;;;;;20.23;16.80;;;23.70;99.90;;;;;;5098401;27;20147;-80
2023/08/19 08:13:23;;;;;;;17.45;15.68;;;23.70;99.90;;;;;;5089067;27;20133;-79
2023/08/19 08:15:49;;;;;;;18.38;16.40;;;23.70;99.90;;;;;;5102052;28;20388;-80
2023/08/19 08:18:15;;;;;;;19.77;15.52;;;23.70;99.90;;;;;;5083921;27;20047;-79
2023/08/19 08:20:41;;;;;;;18.10;16.10;;;23.70;99.90;;;;;;5096669;27;20054;-78
2023/08/19 08:23:06;;;;;;;22.83;17.15;;;23.40;99.90;;;;;;5099788;28;20496;-79
2023/08/19 08:25:32;;;;;;;20.05;16.17;;;23.60;99.90;;;;;;5086161;28;20051;-80
2023/08/19 08:27:58;;;;;;;20.13;17.02;;;23.60;99.90;;;;;;5089078;28;20434;-80
2023/08/19 08:30:24;;;;;;;19.27;17.08;;;23.60;99.90;;;;;;5082778;28;20044;-80
2023/08/19 08:32:51;;;;;;;20.75;16.50;;;23.60;99.90;;;;;;5093647;28;20050;-81
2023/08/19 08:35:17;;;;;;;18.67;16.67;;;23.50;99.90;;;;;;5096129;27;20114;-78
2023/08/19 08:37:43;;;;;;;21.50;17.25;;;23.50;99.90;;;;;;5082848;28;20042;-79
2023/08/19 08:40:16;;;;;;;20.13;16.75;;;23.50;99.90;;;;;;5108876;27;20051;-82
2023/08/19 08:42:47;;;;;;;23.38;17.35;;;23.50;99.90;;;;;;5099161;27;20525;-80
2023/08/19 08:48:22;;;;;;;21.60;17.50;;;23.50;99.90;;;;;;5111065;27;20108;-81
2023/08/19 08:50:48;;;;;;;21.25;17.45;;;23.60;99.90;;;;;;5089921;27;20071;-81
2023/08/19 08:53:34;;;;;;;21.58;17.85;;;23.60;99.90;;;;;;5035056;28;20888;-82
2023/08/19 08:56:02;;;;;;;20.83;18.10;;;23.60;99.90;;;;;;5055047;28;20076;-82
2023/08/19 08:58:28;;;;;;;21.25;17.00;;;23.40;99.90;;;;;;5040863;28;20048;-82
2023/08/19 09:00:55;;;;;;;20.58;17.15;;;23.70;99.90;;;;;;5037056;28;20144;-80
2023/08/19 09:03:29;;;;;;;19.20;17.05;;;23.70;99.90;;;;;;5038554;28;20527;-85
2023/08/19 09:05:58;;;;;;;20.67;17.05;;;23.80;99.90;;;;;;5040905;28;20059;-86
2023/08/19 09:08:34;;;;;;;22.40;18.27;;;23.80;99.90;;;;;;5009246;28;20049;-86
2023/08/19 09:11:00;;;;;;;19.58;17.38;;;23.90;99.90;;;;;;5053721;28;20048;-86
2023/08/19 09:13:27;;;;;;;18.55;16.35;;;23.90;99.90;;;;;;5019064;28;20135;-85
2023/08/19 09:15:54;;;;;;;18.33;15.88;;;23.90;99.90;;;;;;5052834;28;20055;-87
2023/08/19 09:18:21;;;;;;;17.92;15.52;;;24.00;99.90;;;;;;5052763;28;20145;-86
2023/08/19 09:20:47;;;;;;;17.25;15.45;;;24.00;99.90;;;;;;5032150;28;20044;-89
2023/08/19 09:23:13;;;;;;;16.10;14.13;;;24.00;99.90;;;;;;5071229;27;20146;-86
2023/08/19 09:25:40;;;;;;;16.55;14.75;;;24.00;99.90;;;;;;5087001;27;20044;-87
2023/08/19 09:28:07;;;;;;;16.30;13.93;;;24.00;99.90;;;;;;5076718;27;20043;-87
2023/08/19 09:30:34;;;;;;;17.73;15.13;;;24.10;99.90;;;;;;5104482;27;20139;-86
2023/08/19 09:33:02;;;;;;;16.52;14.48;;;24.10;99.90;;;;;;5072583;27;20043;-86
2023/08/19 09:35:38;;;;;;;17.42;14.88;;;24.10;99.90;;;;;;5102739;27;20043;-87
2023/08/19 09:38:04;;;;;;;16.95;14.48;;;24.20;99.90;;;;;;5100855;27;20072;-86
2023/08/19 09:40:30;;;;;;;16.83;14.10;;;24.20;99.90;;;;;;5096256;27;20051;-87
2023/08/19 09:43:00;;;;;;;16.10;14.38;;;24.20;99.90;;;;;;5108526;27;20065;-87
2023/08/19 09:45:27;;;;;;;17.42;14.55;;;24.30;99.90;;;;;;5088896;27;20503;-85
2023/08/19 09:47:55;;;;;;;17.20;15.30;;;24.40;99.90;;;;;;5089427;27;20064;-87
2023/08/19 09:50:23;;;;;;;16.95;15.18;;;24.60;99.90;;;;;;5077302;27;20051;-84
2023/08/19 09:52:54;;;;;;;21.25;16.50;;;24.80;99.90;;;;;;5089170;27;20048;-86
2023/08/19 09:55:29;;;;;;;18.60;16.60;;;24.80;99.90;;;;;;5112967;27;20051;-85
2023/08/19 09:57:56;;;;;;;19.17;15.00;;;25.20;99.90;;;;;;5078181;27;20052;-84
2023/08/19 10:00:23;;;;;;;22.48;17.20;;;25.40;99.90;;;;;;5092093;27;20050;-86
2023/08/19 10:02:49;;;;;;;18.67;16.20;;;25.40;99.90;;;;;;5090827;27;20055;-88
2023/08/19 10:05:19;;;;;;;18.40;14.88;;;25.40;99.90;;;;;;5092083;27;20401;-85
2023/08/19 10:07:52;;;;;;;19.70;15.88;;;25.40;99.90;;;;;;5090468;27;20094;-85
2023/08/19 10:10:21;;;;;;;23.23;15.70;;;25.40;99.90;;;;;;5101627;27;20039;-85
2023/08/19 10:12:50;;;;;;;21.30;15.63;;;25.40;99.90;;;;;;5087863;27;20067;-87
2023/08/19 10:15:38;;;;;;;22.27;18.27;;;25.40;99.90;;;;;;5092852;27;20039;-85
2023/08/19 10:18:17;;;;;;;21.67;18.35;;;25.30;99.90;;;;;;5100465;27;20501;-86
2023/08/19 10:20:49;;;;;;;21.27;18.33;;;25.20;99.90;;;;;;5104672;27;20102;-86
2023/08/19 10:23:16;;;;;;;25.67;21.50;;;25.10;99.90;;;;;;5089707;27;20048;-86
2023/08/19 10:25:43;;;;;;;30.75;22.20;;;24.80;99.90;;;;;;5107132;27;20108;-86
2023/08/19 10:28:21;;;;;;;29.23;23.58;;;24.60;99.90;;;;;;5101898;27;20047;-86
2023/08/19 10:31:04;;;;;;;28.52;22.70;;;24.50;99.90;;;;;;5087251;27;20046;-85
2023/08/19 10:33:37;;;;;;;31.45;24.25;;;24.30;99.90;;;;;;5090026;27;20084;-86
2023/08/19 10:36:07;;;;;;;33.33;25.63;;;24.30;99.90;;;;;;5088433;27;20505;-86
2023/08/19 10:39:05;;;;;;;37.55;28.08;;;24.20;99.90;;;;;;5103882;27;20171;-87
2023/08/19 10:41:37;;;;;;;41.40;30.92;;;24.30;99.90;;;;;;5101625;27;20071;-85
2023/08/19 10:44:13;;;;;;;36.70;28.25;;;24.30;99.90;;;;;;5100310;27;20130;-88
2023/08/19 10:46:43;;;;;;;;;;;24.30;99.90;;;;;;5088373;27;20576;-86
2023/08/19 10:49:14;;;;;;;35.15;26.20;;;24.30;99.90;;;;;;5093650;27;19923;-87
2023/08/19 10:51:51;;;;;;;36.83;26.75;;;24.40;99.90;;;;;;5083941;28;20050;-85
2023/08/19 10:54:39;;;;;;;35.38;27.25;;;24.50;99.90;;;;;;5102473;27;20633;-86
2023/08/19 10:57:25;;;;;;;34.83;26.05;;;24.50;99.90;;;;;;5093941;27;20386;-85
2023/08/19 10:59:59;;;;;;;32.30;23.52;;;24.60;99.90;;;;;;5084950;27;20066;-85
2023/08/19 11:02:28;;;;;;;28.15;21.75;;;24.60;99.90;;;;;;5100933;27;20420;-86
2023/08/19 11:04:57;;;;;;;28.88;21.55;;;24.60;99.90;;;;;;5077728;27;20044;-85
2023/08/19 11:07:25;;;;;;;26.98;19.52;;;24.60;99.90;;;;;;5102522;27;20055;-85
2023/08/19 11:09:54;;;;;;;25.92;18.00;;;24.60;99.90;;;;;;5093882;27;20062;-85
2023/08/19 11:12:21;;;;;;;24.35;17.42;;;24.80;99.70;;;;;;5089202;27;20382;-87
2023/08/19 11:14:48;;;;;;;20.80;16.05;;;24.80;99.20;;;;;;5121500;27;20121;-85
2023/08/19 11:17:14;;;;;;;20.73;14.88;;;24.70;98.60;;;;;;5091100;27;20043;-86
2023/08/19 11:19:41;;;;;;;18.73;14.20;;;24.90;98.10;;;;;;5071269;27;20050;-86
2023/08/19 11:22:14;;;;;;;18.55;13.20;;;25.00;97.50;;;;;;5090784;27;20188;-86
2023/08/19 11:24:40;;;;;;;14.60;12.02;;;25.30;96.90;;;;;;5076505;27;20049;-86
2023/08/19 11:27:07;;;;;;;14.38;11.25;;;25.00;96.60;;;;;;5103142;28;20046;-86
2023/08/19 11:29:36;;;;;;;15.88;10.85;;;24.90;96.10;;;;;;5099331;27;20054;-85
2023/08/19 11:32:02;;;;;;;18.40;12.13;;;25.10;95.90;;;;;;5088195;27;20054;-85
2023/08/19 11:34:29;;;;;;;14.55;11.55;;;25.00;95.30;;;;;;5103138;27;20402;-85
2023/08/19 11:36:55;;;;;;;13.32;10.70;;;25.10;94.70;;;;;;5069013;27;20522;-85
2023/08/19 11:39:21;;;;;;;14.05;9.95;;;25.20;94.20;;;;;;5104925;27;20074;-85
2023/08/19 11:41:47;;;;;;;14.18;9.48;;;25.20;93.70;;;;;;5085312;27;20127;-85
2023/08/19 11:44:14;;;;;;;13.63;8.48;;;25.30;93.30;;;;;;5084253;27;20528;-86
2023/08/19 11:46:40;;;;;;;10.82;7.63;;;25.40;92.90;;;;;;5103101;27;20051;-86
2023/08/19 11:49:10;;;;;;;13.07;6.90;;;25.40;92.30;;;;;;5098161;28;20092;-85
2023/08/19 11:51:39;;;;;;;9.10;6.15;;;25.60;91.90;;;;;;5087550;28;20039;-85
2023/08/19 11:54:10;;;;;;;7.47;5.20;;;25.90;91.50;;;;;;5085932;27;20079;-86
2023/08/19 11:56:59;;;;;;;9.35;5.05;;;25.70;89.60;;;;;;5086639;27;20031;-84
2023/08/19 11:59:35;;;;;;;6.50;4.47;;;25.60;88.40;;;;;;5066093;27;20060;-85
2023/08/19 12:02:08;;;;;;;9.63;4.75;;;25.30;88.50;;;;;;5093394;27;20043;-85
2023/08/19 12:04:36;;;;;;;8.55;4.10;;;25.10;89.90;;;;;;5075629;27;20039;-83
2023/08/19 12:07:12;;;;;;;8.80;4.13;;;24.90;90.30;;;;;;5089750;28;20486;-83
2023/08/19 12:09:40;;;;;;;8.40;4.10;;;24.80;90.50;;;;;;5073830;28;20083;-85
2023/08/19 12:12:11;;;;;;;9.43;3.78;;;24.80;91.10;;;;;;5085568;28;20057;-87
2023/08/19 12:14:38;;;;;;;8.20;3.67;;;24.70;90.70;;;;;;5103397;28;20108;-84
2023/08/19 12:17:07;;;;;;;9.35;3.38;;;24.60;91.10;;;;;;5100540;28;20046;-85
2023/08/19 12:19:33;;;;;;;5.05;2.75;;;24.60;91.10;;;;;;5085758;28;20043;-84
2023/08/19 12:21:58;;;;;;;7.07;2.50;;;24.60;91.00;;;;;;5088189;28;20043;-85
2023/08/19 12:24:24;;;;;;;4.68;2.50;;;24.50;90.60;;;;;;5082814;28;20051;-84
2023/08/19 12:26:50;;;;;;;5.90;2.67;;;24.40;90.20;;;;;;5070619;28;20081;-85
2023/08/19 12:29:16;;;;;;;6.93;2.30;;;24.50;89.10;;;;;;5072762;28;20040;-84
2023/08/19 12:31:42;;;;;;;5.60;1.95;;;24.40;86.10;;;;;;5082544;28;20051;-84
2023/08/19 12:34:08;;;;;;;5.32;2.20;;;24.30;85.30;;;;;;5099919;28;20062;-86
2023/08/19 12:36:33;;;;;;;4.47;1.90;;;24.20;85.00;;;;;;5102198;28;20142;-84
2023/08/19 12:38:59;;;;;;;6.60;2.50;;;24.10;85.30;;;;;;5075879;27;20425;-84
2023/08/19 12:41:25;;;;;;;6.38;2.50;;;24.00;85.80;;;;;;5078890;27;20051;-84
2023/08/19 12:43:51;;;;;;;5.70;2.50;;;24.00;87.50;;;;;;5073845;27;20151;-86
2023/08/19 12:46:17;;;;;;;8.73;2.90;;;23.90;88.90;;;;;;5074863;27;20478;-85
2023/08/19 12:48:43;;;;;;;9.38;3.38;;;23.80;90.20;;;;;;5104397;27;20074;-85
2023/08/19 12:51:09;;;;;;;7.35;2.78;;;23.70;90.60;;;;;;5062953;27;20824;-86
2023/08/19 12:53:36;;;;;;;7.55;2.75;;;23.70;91.20;;;;;;5106336;27;20058;-84
2023/08/19 12:56:03;;;;;;;6.40;2.90;;;23.50;91.20;;;;;;5105586;27;20055;-86